createdAt,value
2023-04-18T00:03:33.613Z,97280.22
2023-04-18T00:06:10.698Z,97281.07
2023-04-18T00:08:46.440Z,97270.14
2023-04-18T00:11:26.001Z,97276.41
2023-04-18T00:14:06.363Z,97265.73
2023-04-18T00:16:40.439Z,97264.63
2023-04-18T00:19:34.475Z,97260.02
2023-04-18T00:22:15.543Z,97227.76
2023-04-18T00:25:03.184Z,97263.81
2023-04-18T00:27:39.037Z,97267.66
2023-04-18T00:30:16.597Z,97263.02
2023-04-18T00:32:50.053Z,97271.46
2023-04-18T00:35:27.363Z,97269.28
2023-04-18T00:38:10.198Z,97265.73
2023-04-18T00:40:47.388Z,97263.55
2023-04-18T00:44:04.088Z,97264.11
2023-04-18T00:47:04.675Z,97263.00
2023-04-18T00:52:57.216Z,97271.75
2023-04-18T00:58:42.007Z,97270.09
2023-04-18T01:01:28.635Z,97261.90
2023-04-18T01:04:18.410Z,97261.89
2023-04-18T01:06:50.147Z,97257.80
2023-04-18T01:09:20.820Z,97253.43
2023-04-18T01:11:50.774Z,97250.70
2023-04-18T01:14:21.572Z,97245.23
2023-04-18T01:16:51.466Z,97233.48
2023-04-18T01:22:37.192Z,97229.94
2023-04-18T01:25:48.117Z,97232.39
2023-04-18T01:32:08.863Z,97227.73
2023-04-18T01:34:57.680Z,97231.88
2023-04-18T01:38:08.813Z,97223.67
2023-04-18T01:40:59.367Z,97224.75
2023-04-18T01:50:00.198Z,97233.50
2023-04-18T01:54:01.523Z,97232.40
2023-04-18T01:58:57.390Z,97235.13
2023-04-18T02:02:03.695Z,97233.77
2023-04-18T02:04:52.738Z,97240.34
2023-04-18T02:07:37.429Z,97241.70
2023-04-18T02:13:31.039Z,97226.09
2023-04-18T02:18:51.745Z,97252.05
2023-04-18T02:21:22.947Z,97247.96
2023-04-18T02:23:56.527Z,97246.62
2023-04-18T02:26:27.733Z,97255.34
2023-04-18T02:28:59.412Z,97258.08
2023-04-18T02:31:52.325Z,97257.27
2023-04-18T02:34:54.236Z,97269.30
2023-04-18T02:40:46.473Z,97274.48
2023-04-18T02:43:44.566Z,97276.39
2023-04-18T02:49:47.021Z,97286.25
2023-04-18T02:52:26.510Z,97283.22
2023-04-18T02:54:57.923Z,97283.22
2023-04-18T02:57:28.023Z,97287.61
2023-04-18T02:59:57.924Z,97288.43
2023-04-18T03:02:30.395Z,97291.16
2023-04-18T03:05:01.143Z,97286.51
2023-04-18T03:07:50.299Z,97284.33
2023-04-18T03:11:19.206Z,97289.80
2023-04-18T03:13:50.671Z,97288.43
2023-04-18T03:20:00.599Z,97296.89
2023-04-18T03:25:45.263Z,97298.80
2023-04-18T03:32:21.226Z,97302.91
2023-04-18T03:34:51.497Z,97308.37
2023-04-18T03:38:11.852Z,97304.27
2023-04-18T03:40:52.271Z,97298.80
2023-04-18T03:44:26.593Z,97295.81
2023-04-18T03:47:01.284Z,97290.05
2023-04-18T03:52:49.910Z,97277.23
2023-04-18T03:55:42.898Z,97279.97
2023-04-18T03:58:13.115Z,97273.66
2023-04-18T04:00:42.968Z,97275.88
2023-04-18T04:03:13.409Z,97270.93
2023-04-18T04:05:43.453Z,97265.46
2023-04-18T04:08:13.420Z,97274.22
2023-04-18T04:11:17.088Z,97274.50
2023-04-18T04:13:58.747Z,97275.88
2023-04-18T04:16:47.005Z,97280.48
2023-04-18T04:22:05.448Z,97274.77
2023-04-18T04:24:36.174Z,97273.95
2023-04-18T04:27:06.056Z,97272.84
2023-04-18T04:29:36.899Z,97281.89
2023-04-18T04:32:07.479Z,97284.61
2023-04-18T04:41:04.595Z,97282.69
2023-04-18T04:44:27.075Z,97273.39
2023-04-18T04:47:03.040Z,97263.57
2023-04-18T04:50:04.281Z,97261.91
2023-04-18T04:53:00.349Z,97260.28
2023-04-18T04:58:54.896Z,97266.30
2023-04-18T05:05:23.826Z,97256.48
2023-04-18T05:11:14.499Z,97255.11
2023-04-18T05:14:37.732Z,97241.45
2023-04-18T05:17:28.285Z,97216.60
2023-04-18T05:20:04.103Z,97230.53
2023-04-18T05:26:51.877Z,97216.06
2023-04-18T05:29:21.886Z,97208.39
2023-04-18T05:31:51.764Z,97203.22
2023-04-18T05:34:21.740Z,97200.19
2023-04-18T05:36:51.622Z,97198.83
2023-04-18T05:39:21.538Z,97206.20
2023-04-18T05:41:53.043Z,97212.22
2023-04-18T05:44:28.573Z,97213.33
2023-04-18T05:47:24.159Z,97220.15
2023-04-18T05:50:06.832Z,97222.59
2023-04-18T05:53:03.663Z,97222.59
2023-04-18T05:55:56.984Z,97222.33
2023-04-18T05:58:27.121Z,97213.88
2023-04-18T06:00:57.258Z,97205.39
2023-04-18T06:03:27.596Z,97202.66
2023-04-18T06:05:57.887Z,97208.93
2023-04-18T06:08:33.830Z,97213.88
2023-04-18T06:11:10.536Z,97211.41
2023-04-18T06:14:10.940Z,97205.94
2023-04-18T06:17:17.790Z,97198.01
2023-04-18T06:23:14.731Z,97181.10
2023-04-18T06:26:33.142Z,97175.34
2023-04-18T06:29:13.203Z,97178.92
2023-04-18T06:32:03.733Z,97172.36
2023-04-18T06:34:34.480Z,97183.50
2023-04-18T06:37:04.906Z,97185.42
2023-04-18T06:39:35.559Z,97177.23
2023-04-18T06:42:05.728Z,97179.70
2023-04-18T06:44:37.127Z,97164.42
2023-04-18T06:47:07.171Z,97166.86
2023-04-18T06:49:37.098Z,97167.67
2023-04-18T06:52:07.175Z,97159.78
2023-04-18T06:54:37.144Z,97156.75
2023-04-18T06:57:07.028Z,97146.39
2023-04-18T06:59:38.231Z,97146.68
2023-04-18T07:02:30.328Z,97138.20
2023-04-18T07:05:00.744Z,97144.20
2023-04-18T07:07:30.704Z,97141.77
2023-04-18T07:10:01.552Z,97142.58
2023-04-18T07:12:34.074Z,97144.20
2023-04-18T07:15:05.426Z,97140.92
2023-04-18T07:17:53.946Z,97140.92
2023-04-18T07:20:24.929Z,97137.93
2023-04-18T07:26:15.571Z,97138.19
2023-04-18T07:28:45.511Z,97150.77
2023-04-18T07:31:16.942Z,97144.75
2023-04-18T07:33:47.426Z,97155.41
2023-04-18T07:36:18.252Z,97150.21
2023-04-18T07:39:00.819Z,97146.67
2023-04-18T07:41:48.742Z,97141.47
2023-04-18T07:44:26.212Z,97131.66
2023-04-18T07:50:36.865Z,97128.66
2023-04-18T07:52:50.383Z,97131.39
2023-04-18T07:55:20.312Z,97125.64
2023-04-18T07:57:51.282Z,97134.67
2023-04-18T08:00:21.436Z,97136.55
2023-04-18T08:02:58.057Z,97133.56
2023-04-18T08:06:11.054Z,97133.82
2023-04-18T08:14:44.707Z,97121.55
2023-04-18T08:17:43.231Z,97122.38
2023-04-18T08:21:20.942Z,97129.20
2023-04-18T08:23:58.228Z,97125.36
2023-04-18T08:29:59.525Z,97122.92
2023-04-18T08:33:08.242Z,97118.28
2023-04-18T08:39:08.896Z,97117.47
2023-04-18T08:42:29.801Z,97114.18
2023-04-18T08:45:22.398Z,97113.92
2023-04-18T08:47:52.856Z,97110.64
2023-04-18T08:50:49.650Z,97110.89
2023-04-18T08:54:01.165Z,97104.63
2023-04-18T09:02:47.939Z,97113.91
2023-04-18T09:12:27.314Z,97113.09
2023-04-18T09:15:24.654Z,97109.80
2023-04-18T09:17:54.876Z,97112.79
2023-04-18T09:24:33.912Z,97110.05
2023-04-18T09:30:41.549Z,97127.80
2023-04-18T09:33:16.999Z,97125.34
2023-04-18T09:36:29.625Z,97122.31
2023-04-18T09:39:27.375Z,97114.98
2023-04-18T09:42:14.499Z,97123.42
2023-04-18T09:45:37.158Z,97113.61
2023-04-18T09:48:41.039Z,97107.86
2023-04-18T09:51:13.705Z,97111.39
2023-04-18T09:53:48.382Z,97118.73
2023-04-18T09:56:53.655Z,97128.56
2023-04-18T10:03:47.363Z,97123.36
2023-04-18T10:06:17.745Z,97121.44
2023-04-18T10:09:09.055Z,97120.08
2023-04-18T10:14:43.919Z,97115.73
2023-04-18T10:17:13.917Z,97117.63
2023-04-18T10:19:44.981Z,97123.64
2023-04-18T10:22:14.932Z,97121.16
2023-04-18T10:24:54.046Z,97117.63
2023-04-18T10:27:52.381Z,97113.27
2023-04-18T10:30:24.173Z,97113.27
2023-04-18T10:33:35.095Z,97122.52
2023-04-18T10:36:14.546Z,97112.72
2023-04-18T10:39:39.441Z,97108.06
2023-04-18T10:42:25.929Z,97115.43
2023-04-18T10:45:23.217Z,97111.59
2023-04-18T10:48:38.580Z,97114.61
2023-04-18T10:51:24.775Z,97112.70
2023-04-18T10:54:13.056Z,97107.78
2023-04-18T10:57:19.338Z,97112.42
2023-04-18T11:00:01.221Z,97113.23
2023-04-18T11:02:55.197Z,97113.78
2023-04-18T11:06:20.429Z,97117.57
2023-04-18T11:09:35.211Z,97114.58
2023-04-18T11:12:45.900Z,97107.50
2023-04-18T11:18:44.402Z,97112.39
2023-04-18T11:21:49.760Z,97115.92
2023-04-18T11:31:04.278Z,97112.39
2023-04-18T11:34:12.782Z,97112.92
2023-04-18T11:42:46.321Z,97117.00
2023-04-18T11:51:57.005Z,97132.24
2023-04-18T11:54:45.493Z,97135.25
2023-04-18T11:57:52.216Z,97140.41
2023-04-18T12:00:23.995Z,97133.33
2023-04-18T12:03:41.837Z,97143.41
2023-04-18T12:06:14.796Z,97143.12
2023-04-18T12:09:48.961Z,97142.04
2023-04-18T12:12:31.456Z,97140.67
2023-04-18T12:15:44.785Z,97141.74
2023-04-18T12:21:38.116Z,97136.86
2023-04-18T12:24:31.383Z,97141.21
2023-04-18T12:27:43.201Z,97149.91
2023-04-18T12:30:58.736Z,97143.89
2023-04-18T12:33:28.974Z,97155.37
2023-04-18T12:36:11.935Z,97159.16
2023-04-18T12:39:20.034Z,97144.94
2023-04-18T12:45:14.837Z,97170.59
2023-04-18T12:48:00.303Z,97169.78
2023-04-18T12:50:30.349Z,97174.13
2023-04-18T12:53:01.233Z,97170.33
2023-04-18T12:55:31.452Z,97177.95
2023-04-18T12:58:01.410Z,97172.75
2023-04-18T13:00:33.240Z,97169.48
2023-04-18T13:03:39.785Z,97174.41
2023-04-18T13:09:07.386Z,97172.20
2023-04-18T13:11:38.272Z,97176.84
2023-04-18T13:14:08.289Z,97180.91
2023-04-18T13:16:38.566Z,97182.28
2023-04-18T13:19:08.349Z,97185.02
2023-04-18T13:27:29.914Z,97186.33
2023-04-18T13:30:33.185Z,97160.06
2023-04-18T13:33:09.823Z,97200.30
2023-04-18T13:35:40.177Z,97198.09
2023-04-18T13:38:12.877Z,97200.30
2023-04-18T13:40:43.224Z,97200.00
2023-04-18T13:43:18.931Z,97193.45
2023-04-18T13:45:49.114Z,97203.84
2023-04-18T13:48:27.468Z,97204.65
2023-04-18T13:51:36.617Z,97209.55
2023-04-18T13:55:11.305Z,97208.19
2023-04-18T13:57:37.790Z,97211.45
2023-04-18T14:00:46.183Z,97205.20
2023-04-18T14:03:48.558Z,97203.28
2023-04-18T14:06:48.787Z,97210.89
2023-04-18T14:09:45.673Z,97212.26
2023-04-18T14:13:11.793Z,97212.26
2023-04-18T14:15:47.373Z,97215.53
2023-04-18T14:18:33.035Z,97214.98
2023-04-18T14:24:36.965Z,97216.34
2023-04-18T14:27:14.433Z,97216.09
2023-04-18T14:29:45.386Z,97208.47
2023-04-18T14:32:18.666Z,97210.34
2023-04-18T14:34:50.779Z,97211.19
2023-04-18T14:37:43.976Z,97207.92
2023-04-18T14:40:14.327Z,97213.92
2023-04-18T14:42:59.407Z,97208.73
2023-04-18T14:45:55.394Z,97211.72
2023-04-18T14:48:40.725Z,97210.36
2023-04-18T14:57:52.792Z,97221.02
2023-04-18T15:00:42.471Z,97215.02
2023-04-18T15:03:55.991Z,97216.38
2023-04-18T15:09:47.166Z,97211.20
2023-04-18T15:15:38.863Z,97215.84
2023-04-18T15:24:48.074Z,97214.72
2023-04-18T15:27:55.340Z,97222.94
2023-04-18T15:30:40.725Z,97222.12
2023-04-18T15:36:46.933Z,97219.67
2023-04-18T15:39:40.985Z,97224.57
2023-04-18T15:42:49.595Z,97222.41
2023-04-18T15:46:11.348Z,97225.13
2023-04-18T15:49:03.803Z,97219.69
2023-04-18T15:57:39.669Z,97209.34
2023-04-18T16:00:40.865Z,97205.52
2023-04-18T16:06:05.742Z,97201.70
2023-04-18T16:08:36.833Z,97204.17
2023-04-18T16:11:07.840Z,97198.73
2023-04-18T16:13:39.609Z,97205.79
2023-04-18T16:16:11.770Z,97201.72
2023-04-18T16:18:55.327Z,97202.56
2023-04-18T16:30:43.673Z,97203.91
2023-04-18T16:36:06.694Z,97202.03
2023-04-18T16:38:37.523Z,97193.31
2023-04-18T16:41:08.608Z,97196.58
2023-04-18T16:43:38.892Z,97187.31
2023-04-18T16:46:09.641Z,97195.23
2023-04-18T16:48:54.534Z,97185.69
2023-04-18T17:00:14.717Z,97175.07
2023-04-18T17:02:45.061Z,97169.61
2023-04-18T17:05:15.233Z,97178.61
2023-04-18T17:07:46.271Z,97177.81
2023-04-18T17:10:16.481Z,97169.08
2023-04-18T17:13:14.854Z,97172.08
2023-04-18T17:16:09.816Z,97165.00
2023-04-18T17:19:14.802Z,97162.55
2023-04-18T17:27:13.907Z,97150.03
2023-04-18T17:29:44.114Z,97149.21
2023-04-18T17:32:14.093Z,97155.48
2023-04-18T17:34:44.145Z,97146.77
2023-04-18T17:37:15.483Z,97143.78
2023-04-18T17:40:15.116Z,97140.20
2023-04-18T17:43:08.301Z,97144.86
2023-04-18T17:52:33.310Z,97123.06
2023-04-18T17:55:07.811Z,97126.05
2023-04-18T17:58:05.697Z,97121.70
2023-04-18T18:01:12.569Z,97108.08
2023-04-18T18:04:13.502Z,97106.97
2023-04-18T18:10:27.882Z,97099.35
2023-04-18T18:13:18.399Z,97095.81
2023-04-18T18:16:14.411Z,97088.19
2023-04-18T18:19:05.784Z,97080.27
2023-04-18T18:22:08.659Z,97071.29
2023-04-18T18:25:23.373Z,97069.38
2023-04-18T18:31:12.684Z,97066.66
2023-04-18T18:34:14.267Z,97050.30
2023-04-18T18:37:15.574Z,97050.30
2023-04-18T18:46:08.579Z,97044.89
2023-04-18T18:49:22.251Z,97045.44
2023-04-18T18:52:14.132Z,97042.16
2023-04-18T19:01:28.952Z,97023.89
2023-04-18T19:04:56.995Z,97025.52
2023-04-18T19:07:40.218Z,97027.98
2023-04-18T19:10:21.083Z,97020.61
2023-04-18T19:13:43.709Z,97016.26
2023-04-18T19:16:42.300Z,97008.89
2023-04-18T19:19:42.501Z,97007.23
2023-04-18T19:22:38.627Z,97008.34
2023-04-18T19:25:35.520Z,97003.70
2023-04-18T19:28:28.583Z,97003.14
2023-04-18T19:31:27.381Z,96982.17
2023-04-18T19:34:36.627Z,96984.34
2023-04-18T19:37:45.366Z,96985.97
2023-04-18T19:40:19.102Z,96986.22
2023-04-18T19:43:30.547Z,96985.41
2023-04-18T19:46:27.054Z,96979.70
2023-04-18T19:49:27.164Z,96980.77
2023-04-18T19:52:20.303Z,96987.59
2023-04-18T19:59:00.459Z,96978.03
2023-04-18T20:02:02.029Z,96967.67
2023-04-18T20:05:06.033Z,96970.66
2023-04-18T20:08:01.838Z,96969.59
2023-04-18T20:10:38.481Z,96971.47
2023-04-18T20:13:46.515Z,96961.36
2023-04-18T20:16:52.565Z,96952.37
2023-04-18T20:19:48.419Z,96963.01
2023-04-18T20:22:47.255Z,96965.19
2023-04-18T20:25:44.601Z,96964.92
2023-04-18T20:31:48.668Z,96960.79
2023-04-18T20:34:33.870Z,96961.08
2023-04-18T20:37:35.710Z,96961.08
2023-04-18T20:40:37.775Z,96967.08
2023-04-18T20:43:55.099Z,96965.16
2023-04-18T20:47:01.020Z,96961.33
2023-04-18T20:49:59.864Z,96969.25
2023-04-18T20:53:01.579Z,96971.98
2023-04-18T20:55:45.200Z,96960.50
2023-04-18T20:58:50.090Z,96968.39
2023-04-18T21:05:21.194Z,96969.52
2023-04-18T21:07:51.295Z,96968.95
2023-04-18T21:10:58.538Z,96960.22
2023-04-18T21:14:11.579Z,96960.22
2023-04-18T21:16:49.108Z,96962.95
2023-04-18T21:22:38.184Z,96966.23
2023-04-18T21:25:42.331Z,96976.04
2023-04-18T21:31:52.276Z,96970.58
2023-04-18T21:35:03.346Z,96960.46
2023-04-18T21:38:12.777Z,96966.47
2023-04-18T21:40:42.864Z,96966.75
2023-04-18T21:44:16.011Z,96959.09
2023-04-18T21:46:54.459Z,96959.37
2023-04-18T21:53:10.681Z,96948.45
2023-04-18T21:55:50.908Z,96948.45
2023-04-18T21:58:41.986Z,96945.97
2023-04-18T22:04:48.977Z,96938.88
2023-04-18T22:07:43.333Z,96944.33
2023-04-18T22:10:06.787Z,96933.66
2023-04-18T22:12:38.586Z,96928.76
2023-04-18T22:15:09.259Z,96935.29
2023-04-18T22:17:41.759Z,96925.73
2023-04-18T22:20:36.636Z,96935.29
2023-04-18T22:23:07.238Z,96930.92
2023-04-18T22:25:49.946Z,96931.73
2023-04-18T22:28:34.744Z,96938.30
2023-04-18T22:31:04.892Z,96928.18
2023-04-18T22:33:34.982Z,96927.38
2023-04-18T22:36:04.978Z,96925.70
2023-04-18T22:38:36.047Z,96924.08
2023-04-18T22:41:08.629Z,96915.07
2023-04-18T22:43:38.805Z,96919.17
2023-04-18T22:46:08.905Z,96922.71
2023-04-18T22:48:40.309Z,96919.98
2023-04-18T22:51:10.375Z,96926.51
2023-04-18T22:53:40.608Z,96926.00
2023-04-18T22:56:11.760Z,96919.17
2023-04-18T23:02:02.069Z,96925.42
2023-04-18T23:04:40.649Z,96933.88
2023-04-18T23:10:08.041Z,96942.33
2023-04-18T23:12:37.819Z,96950.52
2023-04-18T23:15:08.850Z,96948.90
2023-04-18T23:17:40.579Z,96944.80
2023-04-18T23:20:11.665Z,96948.34
2023-04-18T23:22:42.453Z,96942.88
2023-04-18T23:25:13.203Z,96945.37
2023-04-18T23:27:44.232Z,96950.52
2023-04-18T23:30:17.117Z,96958.72
2023-04-18T23:32:47.105Z,96951.37
2023-04-18T23:35:17.737Z,96957.89
2023-04-18T23:38:12.677Z,96960.63
2023-04-18T23:43:47.617Z,96962.28
2023-04-18T23:46:17.995Z,96954.08
2023-04-18T23:48:48.062Z,96956.53
2023-04-18T23:51:18.015Z,96948.62
2023-04-18T23:53:47.944Z,96949.44
2023-04-18T23:56:19.426Z,96948.06
2023-04-18T23:59:03.152Z,96935.50
